Time;durP1;ratioP1;P1;durP2;ratioP2;P2;SDS_P1;SDS_P2;PMS_P1;PMS_P2;Temp;Humidity;BMP_temperature;BMP_pressure;BME280_temperature;BME280_humidity;BME280_pressure;Samples;Min_cycle;Max_cycle;Signal;HPM_P1;HPM_P2
2021/09/08 00:00:26;;;;;;;;;9.00;7.25;;;;;;;;6340143;22;46813;-84
2021/09/08 00:02:52;;;;;;;;;10.00;9.25;;;;;;;;6338900;22;46761;-83
2021/09/08 00:05:17;;;;;;;;;15.00;9.25;;;;;;;;6311328;22;46936;-84
2021/09/08 00:07:43;;;;;;;;;9.50;9.00;;;;;;;;6339315;22;47817;-83
2021/09/08 00:10:08;;;;;;;;;11.75;8.75;;;;;;;;6339389;22;46847;-83
2021/09/08 00:12:35;;;;;;;;;7.50;7.00;;;;;;;;6339505;22;46895;-83
2021/09/08 00:15:00;;;;;;;;;12.75;10.25;;;;;;;;6339825;22;46917;-83
2021/09/08 00:17:25;;;;;;;;;11.25;9.00;;;;;;;;6339183;22;46858;-83
2021/09/08 00:19:51;;;;;;;;;9.25;7.75;;;;;;;;6339113;22;46806;-84
2021/09/08 00:22:16;;;;;;;;;10.75;8.75;;;;;;;;6339422;22;46940;-84
2021/09/08 00:24:42;;;;;;;;;9.00;8.50;;;;;;;;6339618;22;46916;-84
2021/09/08 00:27:07;;;;;;;;;9.75;8.25;;;;;;;;6338982;22;46948;-84
2021/09/08 00:29:34;;;;;;;;;9.00;8.00;;;;;;;;6310484;22;47155;-84
2021/09/08 00:32:00;;;;;;;;;9.00;7.50;;;;;;;;6339378;22;47053;-83
2021/09/08 00:34:25;;;;;;;;;10.00;9.25;;;;;;;;6339237;22;46914;-83
2021/09/08 00:36:50;;;;;;;;;9.25;8.25;;;;;;;;6311139;22;48480;-83
2021/09/08 00:39:15;;;;;;;;;12.75;10.75;;;;;;;;6339050;22;46947;-83
2021/09/08 00:41:41;;;;;;;;;9.50;8.25;;;;;;;;6339670;22;46896;-83
2021/09/08 00:44:07;;;;;;;;;10.75;8.50;;;;;;;;6339667;22;46843;-83
2021/09/08 00:46:32;;;;;;;;;10.25;9.00;;;;;;;;6338666;22;47006;-83
2021/09/08 00:48:58;;;;;;;;;9.00;9.00;;;;;;;;6338840;22;46771;-83
2021/09/08 00:51:23;;;;;;;;;8.00;8.00;;;;;;;;6339151;22;46797;-83
2021/09/08 00:53:51;;;;;;;;;12.75;9.75;;;;;;;;6339389;22;47108;-83
2021/09/08 00:56:16;;;;;;;;;10.25;9.00;;;;;;;;6339529;22;46842;-83
2021/09/08 00:58:42;;;;;;;;;8.25;8.25;;;;;;;;6339230;22;47213;-83
2021/09/08 01:01:08;;;;;;;;;9.00;9.00;;;;;;;;6310887;22;46998;-83
2021/09/08 01:03:33;;;;;;;;;13.00;9.25;;;;;;;;6339189;22;46789;-83
2021/09/08 01:05:58;;;;;;;;;10.00;9.50;;;;;;;;6339159;22;47810;-83
2021/09/08 01:08:24;;;;;;;;;9.75;7.00;;;;;;;;6310109;22;47412;-83
2021/09/08 01:10:49;;;;;;;;;12.50;10.50;;;;;;;;6339366;22;46938;-83
2021/09/08 01:13:14;;;;;;;;;10.50;8.00;;;;;;;;6310776;22;46937;-83
2021/09/08 01:15:52;;;;;;;;;10.00;10.00;;;;;;;;6339029;22;47874;-83
2021/09/08 01:18:18;;;;;;;;;9.25;9.25;;;;;;;;6338594;22;46820;-82
2021/09/08 01:20:43;;;;;;;;;9.75;9.75;;;;;;;;6339093;22;46713;-83
2021/09/08 01:23:08;;;;;;;;;9.75;9.75;;;;;;;;6339412;22;46686;-83
2021/09/08 01:25:34;;;;;;;;;10.25;8.75;;;;;;;;6310504;22;49452;-83
2021/09/08 01:27:59;;;;;;;;;14.00;10.75;;;;;;;;6338930;22;46800;-83
2021/09/08 01:30:25;;;;;;;;;12.00;10.50;;;;;;;;6338901;22;46984;-82
2021/09/08 01:32:51;;;;;;;;;11.00;9.25;;;;;;;;6339004;22;46658;-82
2021/09/08 01:35:17;;;;;;;;;11.75;10.75;;;;;;;;6310547;22;46890;-82
2021/09/08 01:37:42;;;;;;;;;10.00;9.50;;;;;;;;6338785;22;47040;-82
2021/09/08 01:40:08;;;;;;;;;14.75;11.00;;;;;;;;6339195;22;46937;-82
2021/09/08 01:42:33;;;;;;;;;10.25;10.25;;;;;;;;6339136;22;46838;-82
2021/09/08 01:44:59;;;;;;;;;11.75;11.25;;;;;;;;6339102;22;46954;-82
2021/09/08 01:47:24;;;;;;;;;14.00;9.75;;;;;;;;6338968;22;46919;-83
2021/09/08 01:49:49;;;;;;;;;11.50;11.25;;;;;;;;6338018;22;47306;-83
2021/09/08 01:52:15;;;;;;;;;15.00;12.50;;;;;;;;6338823;22;46752;-83
2021/09/08 01:54:40;;;;;;;;;10.75;9.00;;;;;;;;6310498;22;46955;-83
2021/09/08 01:57:06;;;;;;;;;8.00;8.00;;;;;;;;6338779;22;46991;-83
2021/09/08 01:59:31;;;;;;;;;9.75;9.50;;;;;;;;6310596;22;46932;-83
2021/09/08 02:01:56;;;;;;;;;12.00;9.00;;;;;;;;6339227;22;47209;-83
2021/09/08 02:04:22;;;;;;;;;14.00;12.75;;;;;;;;6303975;22;47992;-83
2021/09/08 02:06:48;;;;;;;;;9.25;9.00;;;;;;;;6307574;22;46702;-83
2021/09/08 02:09:14;;;;;;;;;9.75;9.75;;;;;;;;6307175;22;46939;-83
2021/09/08 02:11:39;;;;;;;;;7.50;7.50;;;;;;;;6307770;22;47037;-83
2021/09/08 02:14:04;;;;;;;;;11.50;11.50;;;;;;;;6307354;22;47013;-82
2021/09/08 02:16:30;;;;;;;;;11.00;11.00;;;;;;;;6307472;22;46825;-82
2021/09/08 02:18:55;;;;;;;;;8.00;8.00;;;;;;;;6307115;22;46722;-82
2021/09/08 02:21:20;;;;;;;;;11.50;10.25;;;;;;;;6307712;22;46799;-82
2021/09/08 02:23:46;;;;;;;;;8.25;8.25;;;;;;;;6307260;22;46939;-83
2021/09/08 02:26:12;;;;;;;;;12.25;9.50;;;;;;;;6305330;22;46919;-83
2021/09/08 02:28:37;;;;;;;;;13.50;12.75;;;;;;;;6307098;22;46835;-83
2021/09/08 02:31:02;;;;;;;;;12.25;10.00;;;;;;;;6305517;22;47194;-82
2021/09/08 02:33:28;;;;;;;;;0.00;0.00;;;;;;;;6307448;22;47062;-83
2021/09/08 02:35:53;;;;;;;;;0.00;0.00;;;;;;;;6307478;22;46831;-82
2021/09/08 02:38:19;;;;;;;;;7.25;7.25;;;;;;;;6307617;22;46958;-82
2021/09/08 02:40:44;;;;;;;;;0.00;0.00;;;;;;;;6305538;22;47091;-82
2021/09/08 02:43:09;;;;;;;;;0.00;0.00;;;;;;;;6307436;22;47661;-82
2021/09/08 02:45:35;;;;;;;;;0.00;0.00;;;;;;;;6307599;22;46883;-83
2021/09/08 02:48:00;;;;;;;;;0.00;0.00;;;;;;;;6306507;22;46865;-83
2021/09/08 02:50:26;;;;;;;;;0.00;0.00;;;;;;;;6307439;22;47017;-83
2021/09/08 02:52:51;;;;;;;;;0.00;0.00;;;;;;;;6307185;22;47921;-83
2021/09/08 02:55:16;;;;;;;;;0.00;0.00;;;;;;;;6307365;22;46935;-83
2021/09/08 02:57:42;;;;;;;;;0.00;0.00;;;;;;;;6307415;22;46784;-83
2021/09/08 03:00:07;;;;;;;;;7.50;6.00;;;;;;;;6307618;22;46732;-83
2021/09/08 03:02:33;;;;;;;;;0.00;0.00;;;;;;;;6307967;22;47004;-83
2021/09/08 03:04:59;;;;;;;;;0.00;0.00;;;;;;;;6306156;22;47982;-83
2021/09/08 03:07:24;;;;;;;;;0.00;0.00;;;;;;;;6308832;22;46861;-83
2021/09/08 03:09:49;;;;;;;;;0.00;0.00;;;;;;;;6308583;22;46898;-83
2021/09/08 03:12:15;;;;;;;;;4.75;4.50;;;;;;;;6308326;22;47050;-83
2021/09/08 03:14:40;;;;;;;;;14.50;12.00;;;;;;;;6308625;22;46708;-82
2021/09/08 03:17:05;;;;;;;;;12.50;10.25;;;;;;;;6308597;22;46810;-82
2021/09/08 03:19:31;;;;;;;;;13.50;11.75;;;;;;;;6308645;22;46796;-83
2021/09/08 03:21:56;;;;;;;;;14.25;13.00;;;;;;;;6305772;22;48033;-83
2021/09/08 03:24:21;;;;;;;;;14.00;10.00;;;;;;;;6308309;22;46804;-83
2021/09/08 03:26:47;;;;;;;;;13.00;11.75;;;;;;;;6308247;22;46985;-83
2021/09/08 03:29:12;;;;;;;;;13.75;13.00;;;;;;;;6308274;22;47237;-83
2021/09/08 03:31:37;;;;;;;;;13.50;10.00;;;;;;;;6308354;22;47592;-83
2021/09/08 03:34:03;;;;;;;;;14.25;13.25;;;;;;;;6307814;22;46890;-83
2021/09/08 03:36:28;;;;;;;;;10.25;9.75;;;;;;;;6308400;22;46850;-85
2021/09/08 03:38:53;;;;;;;;;12.50;12.25;;;;;;;;6306664;22;47219;-85
2021/09/08 03:41:19;;;;;;;;;15.00;15.00;;;;;;;;6307848;22;46879;-84
2021/09/08 03:43:44;;;;;;;;;17.25;15.75;;;;;;;;6307868;22;46957;-83
2021/09/08 03:46:09;;;;;;;;;13.75;10.50;;;;;;;;6308186;22;46912;-83
2021/09/08 03:48:35;;;;;;;;;14.00;12.50;;;;;;;;6307514;22;47015;-83
2021/09/08 03:51:01;;;;;;;;;15.00;14.00;;;;;;;;6308119;22;46935;-82
2021/09/08 03:53:26;;;;;;;;;14.25;13.00;;;;;;;;6308050;22;47042;-82
2021/09/08 03:55:52;;;;;;;;;15.00;13.50;;;;;;;;6308212;22;47377;-83
2021/09/08 03:58:17;;;;;;;;;14.00;13.25;;;;;;;;6305780;22;47137;-83
2021/09/08 04:00:43;;;;;;;;;16.25;13.25;;;;;;;;6306097;22;48558;-83
2021/09/08 04:03:09;;;;;;;;;13.00;12.00;;;;;;;;6304899;22;46840;-83
2021/09/08 04:05:34;;;;;;;;;14.25;13.75;;;;;;;;6306210;22;46907;-83
2021/09/08 04:08:00;;;;;;;;;15.75;14.75;;;;;;;;6305719;22;47174;-83
2021/09/08 04:10:25;;;;;;;;;14.75;14.50;;;;;;;;6305494;22;47079;-83
2021/09/08 04:12:50;;;;;;;;;17.75;14.75;;;;;;;;6304769;22;46852;-83
2021/09/08 04:15:16;;;;;;;;;12.00;12.00;;;;;;;;6308059;22;46913;-83
2021/09/08 04:17:41;;;;;;;;;16.75;15.75;;;;;;;;6305348;22;46800;-83
2021/09/08 04:20:08;;;;;;;;;15.00;14.50;;;;;;;;6307827;22;47750;-83
2021/09/08 04:22:33;;;;;;;;;16.25;15.00;;;;;;;;6305246;22;47474;-83
2021/09/08 04:24:59;;;;;;;;;15.75;12.25;;;;;;;;6308144;22;46969;-83
2021/09/08 04:27:24;;;;;;;;;14.25;13.75;;;;;;;;6307783;22;46963;-83
2021/09/08 04:29:49;;;;;;;;;14.75;13.25;;;;;;;;6307634;22;46942;-83
2021/09/08 04:32:15;;;;;;;;;14.75;13.00;;;;;;;;6307661;22;46940;-83
2021/09/08 04:34:40;;;;;;;;;14.50;13.75;;;;;;;;6307776;22;46919;-83
2021/09/08 04:37:05;;;;;;;;;14.50;12.75;;;;;;;;6307985;22;47194;-83
2021/09/08 04:39:31;;;;;;;;;16.25;13.25;;;;;;;;6308092;22;46824;-83
2021/09/08 04:41:56;;;;;;;;;13.75;12.25;;;;;;;;6307918;22;46998;-84
2021/09/08 04:44:21;;;;;;;;;13.50;11.75;;;;;;;;6307765;22;46935;-85
2021/09/08 04:46:47;;;;;;;;;14.50;13.25;;;;;;;;6307652;22;46924;-85
2021/09/08 04:49:12;;;;;;;;;12.75;11.50;;;;;;;;6307365;22;47146;-85
2021/09/08 04:51:37;;;;;;;;;15.50;13.25;;;;;;;;6307891;22;46839;-85
2021/09/08 04:54:03;;;;;;;;;15.25;13.75;;;;;;;;6308124;22;46824;-85
2021/09/08 04:56:28;;;;;;;;;16.00;14.00;;;;;;;;6307961;22;46948;-85
2021/09/08 04:58:53;;;;;;;;;16.25;14.00;;;;;;;;6307830;22;48082;-84
2021/09/08 05:01:19;;;;;;;;;17.25;15.00;;;;;;;;6307764;22;46772;-84
2021/09/08 05:03:44;;;;;;;;;12.75;11.75;;;;;;;;6321585;22;46764;-85
2021/09/08 05:06:09;;;;;;;;;14.25;12.25;;;;;;;;6339574;22;46698;-83
2021/09/08 05:08:35;;;;;;;;;17.00;14.50;;;;;;;;6338955;22;46716;-83
2021/09/08 05:11:00;;;;;;;;;17.25;14.75;;;;;;;;6338963;22;46785;-82
2021/09/08 05:13:25;;;;;;;;;16.25;14.75;;;;;;;;6338939;22;46872;-82
2021/09/08 05:15:51;;;;;;;;;15.25;12.25;;;;;;;;6339329;22;47121;-82
2021/09/08 05:18:16;;;;;;;;;15.25;13.75;;;;;;;;6338958;22;46895;-82
2021/09/08 05:20:43;;;;;;;;;15.25;13.25;;;;;;;;6339288;22;46877;-82
2021/09/08 05:23:08;;;;;;;;;18.00;14.25;;;;;;;;6339681;22;46976;-83
2021/09/08 05:25:33;;;;;;;;;16.25;13.50;;;;;;;;6311112;22;46854;-84
2021/09/08 05:27:59;;;;;;;;;15.50;13.00;;;;;;;;6338854;22;47766;-82
2021/09/08 05:30:24;;;;;;;;;0.00;0.00;;;;;;;;6339055;22;46795;-82
2021/09/08 05:32:49;;;;;;;;;14.00;13.75;;;;;;;;6338774;22;47021;-82
2021/09/08 05:35:15;;;;;;;;;19.00;16.25;;;;;;;;6338891;22;46947;-82
2021/09/08 05:37:41;;;;;;;;;0.00;0.00;;;;;;;;6339060;22;46820;-82
2021/09/08 05:40:08;;;;;;;;;14.75;13.50;;;;;;;;6338411;22;46893;-82
2021/09/08 05:42:33;;;;;;;;;14.75;14.25;;;;;;;;6338679;22;46781;-82
2021/09/08 05:44:58;;;;;;;;;17.50;14.50;;;;;;;;6339437;22;46775;-82
2021/09/08 05:47:24;;;;;;;;;14.00;13.00;;;;;;;;6310357;22;48485;-82
2021/09/08 05:49:49;;;;;;;;;16.75;12.25;;;;;;;;6339306;22;46768;-82
2021/09/08 05:52:14;;;;;;;;;17.00;15.75;;;;;;;;6339199;22;46754;-83
2021/09/08 05:54:40;;;;;;;;;17.75;16.00;;;;;;;;6339024;22;46711;-84
2021/09/08 05:57:05;;;;;;;;;14.50;13.50;;;;;;;;6310120;22;48405;-83
2021/09/08 05:59:30;;;;;;;;;15.25;12.25;;;;;;;;6310646;22;47049;-83
2021/09/08 06:01:56;;;;;;;;;18.50;16.75;;;;;;;;6339053;22;46857;-82
2021/09/08 06:04:21;;;;;;;;;17.25;15.75;;;;;;;;6338424;22;47045;-84
2021/09/08 06:06:46;;;;;;;;;16.50;16.25;;;;;;;;6339127;22;47833;-85
2021/09/08 06:09:12;;;;;;;;;17.75;16.75;;;;;;;;6339021;22;47046;-83
2021/09/08 06:11:37;;;;;;;;;10.00;9.50;;;;;;;;6338689;22;47155;-81
2021/09/08 06:14:02;;;;;;;;;15.75;14.75;;;;;;;;6339723;22;47021;-81
2021/09/08 06:16:28;;;;;;;;;16.00;15.50;;;;;;;;6339434;22;46931;-83
2021/09/08 06:18:53;;;;;;;;;13.50;13.50;;;;;;;;6337905;22;46955;-82
2021/09/08 06:21:20;;;;;;;;;16.75;14.50;;;;;;;;6338885;22;47360;-81
2021/09/08 06:23:46;;;;;;;;;17.25;14.75;;;;;;;;6339437;22;46829;-82
2021/09/08 06:26:11;;;;;;;;;23.00;15.25;;;;;;;;6338711;22;46869;-81
2021/09/08 06:28:37;;;;;;;;;16.25;14.00;;;;;;;;6338494;22;46903;-83
2021/09/08 06:31:12;;;;;;;;;15.50;14.00;;;;;;;;6342158;22;47171;-83
2021/09/08 06:33:38;;;;;;;;;16.50;14.75;;;;;;;;6309636;22;47134;-83
2021/09/08 06:36:04;;;;;;;;;18.50;15.50;;;;;;;;6338298;22;47929;-84
2021/09/08 06:38:29;;;;;;;;;15.75;13.75;;;;;;;;6339118;22;46764;-81
2021/09/08 06:40:58;;;;;;;;;17.25;15.25;;;;;;;;6309985;22;46865;-84
2021/09/08 06:43:24;;;;;;;;;17.50;13.50;;;;;;;;6338365;22;46896;-84
2021/09/08 06:45:49;;;;;;;;;15.50;13.50;;;;;;;;6338270;22;47083;-83
2021/09/08 06:48:14;;;;;;;;;15.50;12.50;;;;;;;;6338146;22;46908;-88
2021/09/08 06:50:40;;;;;;;;;15.00;15.00;;;;;;;;6338436;22;46908;-87
2021/09/08 06:53:05;;;;;;;;;17.75;16.00;;;;;;;;6338148;22;46891;-86
2021/09/08 06:55:30;;;;;;;;;14.25;10.25;;;;;;;;6338081;22;48006;-87
2021/09/08 06:57:56;;;;;;;;;12.50;11.50;;;;;;;;6310191;22;47463;-87
2021/09/08 07:00:21;;;;;;;;;15.50;12.25;;;;;;;;6338358;22;46846;-83
2021/09/08 07:02:49;;;;;;;;;16.25;11.75;;;;;;;;6337743;22;46948;-84
2021/09/08 07:05:27;;;;;;;;;;;;;;;;;;;;;
2021/09/08 07:07:53;;;;;;;;;17.00;15.50;;;;;;;;6336540;22;77065;-86
2021/09/08 07:10:18;;;;;;;;;12.50;12.25;;;;;;;;6338316;22;46848;-83
2021/09/08 07:12:44;;;;;;;;;12.00;12.00;;;;;;;;6338521;22;46942;-83
2021/09/08 07:15:10;;;;;;;;;14.25;13.25;;;;;;;;6338358;22;47831;-83
2021/09/08 07:17:35;;;;;;;;;15.00;13.50;;;;;;;;6337746;22;46791;-85
2021/09/08 07:20:03;;;;;;;;;14.25;9.25;;;;;;;;6338111;22;47240;-86
2021/09/08 07:28:43;;;;;;;;;10.00;9.75;;;;;;;;6273913;22;46994;-84
2021/09/08 07:31:08;;;;;;;;;12.25;12.00;;;;;;;;6310248;22;46742;-82
2021/09/08 07:33:33;;;;;;;;;11.50;11.50;;;;;;;;6338111;22;46741;-83
2021/09/08 07:35:59;;;;;;;;;17.50;13.00;;;;;;;;6338017;22;46837;-83
2021/09/08 07:38:46;;;;;;;;;17.00;14.25;;;;;;;;6337553;22;46727;-94
2021/09/08 07:41:36;;;;;;;;;16.50;11.50;;;;;;;;6309787;22;46943;-91
2021/09/08 07:44:01;;;;;;;;;10.50;8.00;;;;;;;;6263490;22;46820;-87
2021/09/08 07:46:27;;;;;;;;;13.50;10.25;;;;;;;;6316054;22;47321;-83
2021/09/08 07:48:52;;;;;;;;;9.75;9.75;;;;;;;;6339249;22;47152;-82
2021/09/08 07:51:18;;;;;;;;;14.00;12.25;;;;;;;;6339882;22;47060;-82
2021/09/08 07:53:43;;;;;;;;;13.00;12.75;;;;;;;;6340265;22;46942;-82
2021/09/08 07:56:08;;;;;;;;;13.00;12.25;;;;;;;;6311099;22;49398;-82
2021/09/08 07:58:34;;;;;;;;;10.25;8.75;;;;;;;;6339854;22;46738;-82
2021/09/08 08:00:59;;;;;;;;;16.25;14.25;;;;;;;;6311671;22;47018;-82
2021/09/08 08:03:25;;;;;;;;;13.50;12.25;;;;;;;;6311450;22;46719;-82
2021/09/08 08:05:50;;;;;;;;;12.50;10.00;;;;;;;;6339600;22;46874;-82
2021/09/08 08:08:16;;;;;;;;;9.25;8.75;;;;;;;;6340085;22;46867;-82
2021/09/08 08:10:41;;;;;;;;;9.50;8.75;;;;;;;;6339879;22;46695;-82
2021/09/08 08:13:06;;;;;;;;;8.75;6.75;;;;;;;;6340009;22;47097;-82
2021/09/08 08:15:35;;;;;;;;;12.00;10.00;;;;;;;;6311365;22;49148;-82
2021/09/08 08:18:00;;;;;;;;;12.25;9.00;;;;;;;;6338194;22;47025;-83
2021/09/08 08:20:25;;;;;;;;;14.00;12.75;;;;;;;;6339195;22;47033;-82
2021/09/08 08:22:51;;;;;;;;;13.50;10.50;;;;;;;;6339925;22;47145;-83
2021/09/08 08:25:18;;;;;;;;;12.25;10.50;;;;;;;;6339634;22;46816;-83
2021/09/08 08:28:07;;;;;;;;;12.25;11.00;;;;;;;;6339225;22;46980;-83
2021/09/08 08:30:36;;;;;;;;;10.50;9.00;;;;;;;;6338831;22;46864;-85
2021/09/08 08:33:02;;;;;;;;;10.00;8.50;;;;;;;;6339554;22;46770;-82
2021/09/08 08:35:28;;;;;;;;;14.25;12.00;;;;;;;;6339348;22;47815;-83
2021/09/08 08:37:53;;;;;;;;;15.25;14.00;;;;;;;;6339454;22;46691;-83
2021/09/08 08:40:19;;;;;;;;;12.75;12.00;;;;;;;;6310733;22;46746;-83
2021/09/08 08:42:45;;;;;;;;;5.75;5.25;;;;;;;;6310035;22;46750;-83
2021/09/08 08:45:12;;;;;;;;;9.00;8.50;;;;;;;;6338452;22;46929;-83
2021/09/08 08:47:41;;;;;;;;;7.00;7.00;;;;;;;;6338372;22;47061;-83
2021/09/08 08:50:11;;;;;;;;;9.75;8.75;;;;;;;;6339049;22;46828;-83
2021/09/08 08:52:36;;;;;;;;;8.75;5.50;;;;;;;;6339574;22;46971;-83
2021/09/08 08:55:02;;;;;;;;;7.50;7.50;;;;;;;;6339215;22;47590;-83
2021/09/08 08:57:28;;;;;;;;;10.25;8.00;;;;;;;;6339226;22;46929;-83
2021/09/08 08:59:54;;;;;;;;;11.00;8.00;;;;;;;;6338927;22;46782;-83
2021/09/08 09:02:30;;;;;;;;;14.75;14.50;;;;;;;;6339266;22;46880;-82
2021/09/08 09:04:57;;;;;;;;;9.00;9.00;;;;;;;;6338587;22;46850;-82
2021/09/08 09:07:23;;;;;;;;;8.25;8.00;;;;;;;;6310926;22;46968;-82
2021/09/08 09:09:56;;;;;;;;;8.00;7.00;;;;;;;;6311298;22;46902;-82
2021/09/08 09:12:26;;;;;;;;;15.00;13.50;;;;;;;;6339613;22;46955;-82
2021/09/08 09:14:55;;;;;;;;;6.50;5.00;;;;;;;;6311153;22;48611;-82
2021/09/08 09:17:20;;;;;;;;;13.00;9.25;;;;;;;;6339186;22;46872;-82
2021/09/08 09:19:47;;;;;;;;;4.75;4.25;;;;;;;;6311181;22;46961;-82
2021/09/08 09:22:13;;;;;;;;;5.25;4.25;;;;;;;;6339734;22;46939;-82
2021/09/08 09:24:41;;;;;;;;;13.25;11.75;;;;;;;;6339343;22;46790;-82
2021/09/08 09:27:11;;;;;;;;;6.25;6.25;;;;;;;;6339680;22;47019;-82
2021/09/08 09:29:40;;;;;;;;;7.75;7.00;;;;;;;;6338973;22;46956;-82
2021/09/08 09:32:07;;;;;;;;;7.50;7.25;;;;;;;;6338874;22;47050;-83
2021/09/08 09:34:33;;;;;;;;;8.00;6.00;;;;;;;;6310881;22;47394;-82
2021/09/08 09:37:00;;;;;;;;;11.25;11.25;;;;;;;;6339190;22;46851;-82
2021/09/08 09:39:30;;;;;;;;;5.00;5.00;;;;;;;;6340125;22;46931;-82
2021/09/08 09:41:59;;;;;;;;;10.00;8.75;;;;;;;;6311454;22;47215;-82
2021/09/08 09:44:24;;;;;;;;;14.25;13.25;;;;;;;;6339436;22;47013;-82
2021/09/08 09:46:54;;;;;;;;;9.75;9.50;;;;;;;;6339233;22;46808;-82
2021/09/08 09:49:20;;;;;;;;;9.25;7.75;;;;;;;;6310320;22;46877;-82
2021/09/08 09:51:45;;;;;;;;;6.75;6.50;;;;;;;;6339580;22;47149;-82
2021/09/08 09:54:10;;;;;;;;;8.25;7.75;;;;;;;;6338811;22;46837;-82
2021/09/08 09:56:38;;;;;;;;;7.50;7.00;;;;;;;;6338995;22;46712;-82
2021/09/08 09:59:08;;;;;;;;;8.00;6.25;;;;;;;;6339329;22;46862;-81
2021/09/08 10:01:33;;;;;;;;;7.50;7.50;;;;;;;;6310771;22;47264;-81
2021/09/08 10:04:00;;;;;;;;;12.50;12.50;;;;;;;;6338094;22;47753;-81
2021/09/08 10:06:25;;;;;;;;;11.00;9.00;;;;;;;;6338994;22;46915;-81
2021/09/08 10:08:55;;;;;;;;;14.50;13.00;;;;;;;;6339050;22;46711;-81
2021/09/08 10:11:23;;;;;;;;;9.75;9.00;;;;;;;;6338832;22;46800;-81
2021/09/08 10:13:52;;;;;;;;;8.00;7.25;;;;;;;;6310417;22;49375;-82
2021/09/08 10:16:17;;;;;;;;;8.00;8.00;;;;;;;;6338761;22;46853;-81
2021/09/08 10:18:46;;;;;;;;;9.50;8.25;;;;;;;;6338621;22;46852;-83
2021/09/08 10:21:14;;;;;;;;;14.00;13.00;;;;;;;;6338913;22;46829;-82
2021/09/08 10:23:43;;;;;;;;;11.75;8.00;;;;;;;;6338952;22;46834;-82
2021/09/08 10:26:13;;;;;;;;;7.75;7.50;;;;;;;;6339253;22;46930;-81
2021/09/08 10:28:41;;;;;;;;;7.25;6.75;;;;;;;;6310115;22;46778;-82
2021/09/08 10:31:07;;;;;;;;;5.50;3.75;;;;;;;;6339309;22;46756;-82
2021/09/08 10:33:34;;;;;;;;;11.25;11.00;;;;;;;;6338195;22;46936;-82
2021/09/08 10:36:01;;;;;;;;;4.00;4.00;;;;;;;;6338751;22;46926;-82
2021/09/08 10:38:30;;;;;;;;;12.00;11.75;;;;;;;;6338414;22;46844;-81
2021/09/08 10:47:37;;;;;;;;;10.25;10.00;;;;;;;;6241885;22;46738;-81
2021/09/08 10:50:03;;;;;;;;;16.25;15.25;;;;;;;;6337992;22;46955;-80
2021/09/08 10:52:35;;;;;;;;;8.50;8.00;;;;;;;;6338972;22;46978;-81
2021/09/08 10:55:00;;;;;;;;;9.50;8.50;;;;;;;;6338547;22;47694;-80
2021/09/08 10:57:43;;;;;;;;;13.00;9.75;;;;;;;;6338721;22;46831;-80
2021/09/08 11:00:10;;;;;;;;;12.75;11.25;;;;;;;;6338915;22;47043;-80
2021/09/08 11:02:44;;;;;;;;;8.25;8.25;;;;;;;;6338404;22;46717;-81
2021/09/08 11:05:10;;;;;;;;;6.00;6.00;;;;;;;;6338914;22;47839;-81
2021/09/08 11:07:42;;;;;;;;;12.25;12.25;;;;;;;;6310220;22;46892;-80
2021/09/08 11:10:08;;;;;;;;;12.25;11.25;;;;;;;;6310625;22;46801;-80
2021/09/08 11:12:59;;;;;;;;;10.50;8.75;;;;;;;;6338877;22;46917;-80
2021/09/08 11:15:35;;;;;;;;;9.75;9.00;;;;;;;;6331922;22;47828;-80
2021/09/08 11:18:01;;;;;;;;;11.50;9.25;;;;;;;;6337928;22;46786;-81
2021/09/08 11:20:28;;;;;;;;;12.75;10.50;;;;;;;;6337948;22;46746;-81
2021/09/08 11:23:02;;;;;;;;;10.25;10.00;;;;;;;;6340208;22;47273;-81
2021/09/08 11:25:28;;;;;;;;;13.25;9.00;;;;;;;;6311114;22;46974;-81
2021/09/08 11:27:54;;;;;;;;;11.75;10.50;;;;;;;;6339869;22;46775;-81
2021/09/08 11:30:19;;;;;;;;;13.75;13.00;;;;;;;;6339894;22;46718;-81
2021/09/08 11:32:50;;;;;;;;;13.75;11.00;;;;;;;;6339808;22;46699;-80
2021/09/08 11:35:16;;;;;;;;;13.00;11.25;;;;;;;;6339865;22;46918;-81
2021/09/08 11:37:44;;;;;;;;;6.25;5.75;;;;;;;;6339959;22;46853;-81
2021/09/08 11:40:10;;;;;;;;;10.50;9.50;;;;;;;;6340086;22;47057;-81
2021/09/08 11:42:42;;;;;;;;;13.25;10.00;;;;;;;;6311835;22;46995;-81
2021/09/08 11:45:08;;;;;;;;;10.25;9.25;;;;;;;;6340037;22;47760;-81
2021/09/08 11:47:33;;;;;;;;;14.50;12.75;;;;;;;;6339719;22;46806;-81
2021/09/08 11:49:59;;;;;;;;;15.50;13.50;;;;;;;;6311346;22;47046;-81
2021/09/08 11:52:26;;;;;;;;;11.00;11.00;;;;;;;;6340014;22;46719;-81
2021/09/08 11:54:51;;;;;;;;;11.00;10.25;;;;;;;;6339883;22;46797;-81
2021/09/08 11:57:24;;;;;;;;;12.50;11.75;;;;;;;;6339857;22;46718;-81
2021/09/08 11:59:52;;;;;;;;;15.50;12.00;;;;;;;;6340036;22;46696;-81
2021/09/08 12:02:18;;;;;;;;;7.00;6.75;;;;;;;;6339841;22;46844;-81
2021/09/08 12:04:43;;;;;;;;;9.00;8.00;;;;;;;;6339796;22;47451;-81
2021/09/08 12:07:09;;;;;;;;;10.50;10.00;;;;;;;;6339735;22;46804;-81
2021/09/08 12:09:40;;;;;;;;;12.25;8.75;;;;;;;;6339948;22;46952;-81
2021/09/08 12:12:06;;;;;;;;;9.75;8.00;;;;;;;;6339937;22;47328;-81
2021/09/08 12:14:31;;;;;;;;;12.00;9.00;;;;;;;;6339762;22;46838;-81
2021/09/08 12:16:59;;;;;;;;;13.25;12.75;;;;;;;;6339766;22;46734;-81
2021/09/08 12:19:35;;;;;;;;;8.50;8.25;;;;;;;;6340170;22;46829;-81
2021/09/08 12:22:20;;;;;;;;;11.00;11.00;;;;;;;;6340154;22;47197;-81
2021/09/08 12:24:47;;;;;;;;;13.75;10.00;;;;;;;;6339758;22;46974;-81
2021/09/08 12:27:24;;;;;;;;;9.50;9.50;;;;;;;;6339759;22;46825;-81
2021/09/08 12:29:50;;;;;;;;;8.00;8.00;;;;;;;;6339606;22;46927;-81
2021/09/08 12:32:16;;;;;;;;;10.00;10.00;;;;;;;;6339928;22;47162;-81
2021/09/08 12:34:46;;;;;;;;;8.00;8.00;;;;;;;;6310864;22;48873;-81
2021/09/08 12:37:12;;;;;;;;;11.00;11.00;;;;;;;;6339664;22;46939;-80
2021/09/08 12:39:41;;;;;;;;;12.25;10.25;;;;;;;;6340062;22;46805;-80
2021/09/08 12:42:07;;;;;;;;;10.50;8.50;;;;;;;;6311623;22;47126;-81
2021/09/08 12:44:33;;;;;;;;;11.75;11.00;;;;;;;;6339793;22;48179;-81
2021/09/08 12:47:09;;;;;;;;;11.50;10.75;;;;;;;;6310928;22;46908;-81
2021/09/08 12:49:35;;;;;;;;;13.25;11.75;;;;;;;;6310915;22;46813;-81
2021/09/08 12:52:00;;;;;;;;;9.50;9.50;;;;;;;;6340092;22;46749;-81
2021/09/08 12:54:25;;;;;;;;;10.50;9.50;;;;;;;;6339601;22;47666;-81
2021/09/08 12:56:51;;;;;;;;;10.75;9.75;;;;;;;;6339345;22;46915;-81
2021/09/08 12:59:22;;;;;;;;;6.75;6.50;;;;;;;;6339792;22;46797;-81
2021/09/08 13:01:51;;;;;;;;;11.50;11.00;;;;;;;;6339627;22;46809;-81
2021/09/08 13:04:17;;;;;;;;;8.25;7.75;;;;;;;;6339452;22;46843;-81
2021/09/08 13:06:43;;;;;;;;;9.00;8.25;;;;;;;;6339590;22;46809;-81
2021/09/08 13:09:08;;;;;;;;;9.75;7.25;;;;;;;;6339721;22;47163;-81
2021/09/08 13:11:34;;;;;;;;;8.50;8.50;;;;;;;;6339939;22;46947;-81
2021/09/08 13:13:59;;;;;;;;;11.50;10.00;;;;;;;;6339424;22;47516;-81
2021/09/08 13:16:24;;;;;;;;;9.00;8.75;;;;;;;;6339535;22;46703;-81
2021/09/08 13:18:50;;;;;;;;;13.50;12.00;;;;;;;;6339355;22;46765;-80
2021/09/08 13:21:15;;;;;;;;;9.25;8.25;;;;;;;;6339736;22;46721;-81
2021/09/08 13:23:41;;;;;;;;;11.50;10.00;;;;;;;;6339450;22;46932;-81
2021/09/08 13:26:06;;;;;;;;;7.00;7.00;;;;;;;;6339478;22;46777;-81
2021/09/08 13:28:32;;;;;;;;;11.00;9.75;;;;;;;;6339184;22;46785;-81
2021/09/08 13:30:58;;;;;;;;;12.00;9.00;;;;;;;;6339466;22;46943;-81
2021/09/08 13:33:24;;;;;;;;;9.25;9.25;;;;;;;;6310540;22;49065;-80
2021/09/08 13:35:49;;;;;;;;;10.00;9.75;;;;;;;;6339709;22;46825;-81
2021/09/08 13:38:14;;;;;;;;;11.25;10.25;;;;;;;;6339672;22;46970;-81
2021/09/08 13:40:40;;;;;;;;;8.75;8.00;;;;;;;;6311508;22;46919;-81
2021/09/08 13:43:05;;;;;;;;;12.25;10.00;;;;;;;;6339439;22;47361;-81
2021/09/08 13:45:30;;;;;;;;;9.50;9.25;;;;;;;;6338706;22;46918;-81
2021/09/08 13:47:56;;;;;;;;;10.75;10.25;;;;;;;;6339257;22;47273;-81
2021/09/08 13:50:21;;;;;;;;;11.00;9.00;;;;;;;;6339470;22;46952;-81
2021/09/08 13:52:46;;;;;;;;;11.25;10.00;;;;;;;;6310679;22;47288;-81
2021/09/08 13:55:12;;;;;;;;;12.75;12.00;;;;;;;;6339318;22;46823;-80
2021/09/08 13:57:38;;;;;;;;;11.25;10.50;;;;;;;;6339537;22;46801;-81
2021/09/08 14:00:04;;;;;;;;;8.75;8.75;;;;;;;;6311474;22;46772;-81
2021/09/08 14:02:29;;;;;;;;;11.75;11.75;;;;;;;;6339019;22;46876;-81
2021/09/08 14:04:54;;;;;;;;;11.75;9.75;;;;;;;;6339279;22;46812;-81
2021/09/08 14:07:22;;;;;;;;;15.25;15.25;;;;;;;;6339449;22;46797;-81
2021/09/08 14:09:47;;;;;;;;;11.75;10.25;;;;;;;;6339413;22;47173;-81
2021/09/08 14:12:13;;;;;;;;;12.25;10.00;;;;;;;;6339719;22;47733;-81
2021/09/08 14:14:38;;;;;;;;;7.00;7.00;;;;;;;;6310983;22;46880;-81
2021/09/08 14:17:04;;;;;;;;;14.50;10.00;;;;;;;;6339193;22;46876;-81
2021/09/08 14:19:30;;;;;;;;;13.25;10.75;;;;;;;;6339884;22;47075;-81
2021/09/08 14:21:55;;;;;;;;;11.25;8.25;;;;;;;;6339514;22;47072;-81
2021/09/08 14:24:21;;;;;;;;;10.00;9.50;;;;;;;;6311185;22;46811;-81
2021/09/08 14:26:46;;;;;;;;;11.00;10.75;;;;;;;;6339763;22;46926;-81
2021/09/08 14:29:11;;;;;;;;;7.50;5.00;;;;;;;;6338926;22;46840;-81
2021/09/08 14:31:39;;;;;;;;;8.00;8.00;;;;;;;;6339449;22;46896;-81
2021/09/08 14:34:04;;;;;;;;;16.00;13.25;;;;;;;;6338988;22;46938;-81
2021/09/08 14:36:30;;;;;;;;;14.00;10.00;;;;;;;;6339523;22;46876;-84